Time;durP1;ratioP1;P1;durP2;ratioP2;P2;SDS_P1;SDS_P2;PMS_P1;PMS_P2;Temp;Humidity;BMP_temperature;BMP_pressure;BME280_temperature;BME280_humidity;BME280_pressure;Samples;Min_cycle;Max_cycle;Signal;HPM_P1;HPM_P2
2022/04/05 00:00:39;;;;;;;7.18;3.67;;;;;;;15.01;50.74;100403.22;4954713;28;20034;-66
2022/04/05 00:03:04;;;;;;;4.30;2.80;;;;;;;15.02;49.86;100399.50;4963060;28;20061;-65
2022/04/05 00:05:30;;;;;;;3.92;3.15;;;;;;;15.03;50.36;100406.59;4963882;28;20421;-66
2022/04/05 00:07:55;;;;;;;5.07;3.58;;;;;;;15.04;50.05;100405.59;4968496;28;20035;-65
2022/04/05 00:10:21;;;;;;;4.15;3.00;;;;;;;15.04;50.59;100401.03;4963136;28;20034;-65
2022/04/05 00:12:46;;;;;;;5.05;3.83;;;;;;;15.05;51.22;100409.94;4965888;28;20046;-65
2022/04/05 00:15:12;;;;;;;3.97;3.00;;;;;;;15.06;50.88;100400.84;4964156;28;20030;-65
2022/04/05 00:17:38;;;;;;;5.53;3.53;;;;;;;15.08;50.11;100405.06;4967436;28;20027;-66
2022/04/05 00:20:04;;;;;;;4.38;3.38;;;;;;;15.10;50.82;100399.53;4965749;28;20165;-65
2022/04/05 00:22:30;;;;;;;5.47;3.92;;;;;;;15.10;49.92;100402.22;4967790;28;20023;-65
2022/04/05 00:24:55;;;;;;;6.15;3.72;;;;;;;15.13;51.58;100401.88;4965486;28;20392;-66
2022/04/05 00:27:20;;;;;;;5.75;3.58;;;;;;;15.14;51.71;100404.41;4965147;28;20518;-65
2022/04/05 00:29:46;;;;;;;5.13;3.35;;;;;;;15.19;51.82;100400.38;4961977;28;20019;-66
2022/04/05 00:32:12;;;;;;;5.43;3.38;;;;;;;15.20;50.41;100399.34;4962191;28;20102;-66
2022/04/05 00:34:38;;;;;;;5.80;4.07;;;;;;;15.23;50.03;100397.16;4962502;28;20074;-65
2022/04/05 00:37:03;;;;;;;6.88;3.65;;;;;;;15.25;50.24;100394.28;4957860;28;20485;-65
2022/04/05 00:39:29;;;;;;;6.20;3.75;;;;;;;15.28;50.18;100400.19;4961917;28;20030;-65
2022/04/05 00:41:54;;;;;;;6.15;4.10;;;;;;;15.29;51.32;100395.63;4967387;28;20109;-66
2022/04/05 00:44:20;;;;;;;5.93;3.80;;;;;;;15.30;50.83;100392.75;4962543;28;20038;-66
2022/04/05 00:46:45;;;;;;;6.22;4.00;;;;;;;15.34;51.72;100393.25;4957626;28;20023;-66
2022/04/05 00:49:16;;;;;;;4.85;3.92;;;;;;;15.34;51.69;100398.66;4969082;28;20031;-66
2022/04/05 00:51:41;;;;;;;5.00;3.53;;;;;;;15.37;50.82;100398.31;4962646;28;20086;-66
2022/04/05 00:54:07;;;;;;;4.63;3.38;;;;;;;15.34;51.92;100388.72;4964418;28;20428;-65
2022/04/05 00:56:35;;;;;;;5.72;3.95;;;;;;;15.39;50.85;100391.72;4964670;28;20128;-66
2022/04/05 00:59:02;;;;;;;7.20;3.70;;;;;;;15.43;52.06;100389.53;4961557;28;20504;-66
2022/04/05 01:01:29;;;;;;;4.80;3.15;;;;;;;15.44;50.80;100389.34;4961270;28;20019;-66
2022/04/05 01:03:54;;;;;;;7.88;3.38;;;;;;;15.45;50.57;100396.44;4962484;28;20033;-66
2022/04/05 01:06:25;;;;;;;4.47;3.45;;;;;;;15.46;51.66;100397.31;4961246;28;20023;-66
2022/04/05 01:08:51;;;;;;;5.97;3.72;;;;;;;15.47;51.60;100394.44;4962409;28;20118;-66
2022/04/05 01:11:16;;;;;;;4.38;2.97;;;;;;;15.49;52.10;100387.03;4963773;28;20435;-66
2022/04/05 01:13:43;;;;;;;5.45;3.65;;;;;;;15.49;51.04;100387.03;4967378;28;20480;-65
2022/04/05 01:16:10;;;;;;;3.78;2.95;;;;;;;15.52;51.17;100393.94;4967718;28;20022;-66
2022/04/05 01:18:35;;;;;;;5.82;3.60;;;;;;;15.54;50.80;100390.06;4964013;28;20038;-65
2022/04/05 01:21:02;;;;;;;5.38;3.17;;;;;;;15.56;51.29;100382.63;4964888;28;20035;-66
2022/04/05 01:23:27;;;;;;;4.68;3.58;;;;;;;15.58;51.15;100380.59;4964735;28;20050;-65
2022/04/05 01:25:52;;;;;;;5.05;3.45;;;;;;;15.60;51.88;100383.97;4962615;28;20030;-66
2022/04/05 01:28:19;;;;;;;5.38;3.50;;;;;;;15.58;52.20;100386.00;4957495;28;20111;-65
2022/04/05 01:30:45;;;;;;;5.78;3.60;;;;;;;15.59;50.82;100390.38;4962831;28;20042;-66
2022/04/05 01:33:10;;;;;;;6.13;3.53;;;;;;;15.61;50.66;100390.19;4967171;28;20418;-66
2022/04/05 01:35:36;;;;;;;5.72;3.67;;;;;;;15.62;51.03;100391.91;4967528;28;20058;-66
2022/04/05 01:38:02;;;;;;;4.38;3.17;;;;;;;15.65;51.23;100392.41;4972832;28;20407;-66
2022/04/05 01:40:28;;;;;;;4.90;3.40;;;;;;;15.64;52.29;100401.50;4964674;28;20031;-66
2022/04/05 01:42:53;;;;;;;7.63;4.13;;;;;;;15.64;51.97;100385.31;4967233;28;20027;-66
2022/04/05 01:45:19;;;;;;;5.80;4.00;;;;;;;15.69;51.51;100392.88;4965270;28;20066;-65
2022/04/05 01:47:44;;;;;;;6.05;3.80;;;;;;;15.73;52.23;100388.81;4964854;28;20061;-66
2022/04/05 01:50:09;;;;;;;6.18;4.15;;;;;;;15.74;52.41;100385.13;4963908;28;20088;-66
2022/04/05 01:52:35;;;;;;;4.82;3.70;;;;;;;15.78;51.69;100385.59;4958288;28;20098;-66
2022/04/05 01:55:00;;;;;;;6.10;3.92;;;;;;;15.79;52.15;100381.88;4970151;28;20373;-66
2022/04/05 01:57:26;;;;;;;6.97;4.35;;;;;;;15.81;51.50;100377.16;4960610;28;20106;-65
2022/04/05 01:59:51;;;;;;;6.68;4.30;;;;;;;15.82;51.48;100381.53;4964753;28;20115;-66
2022/04/05 02:02:16;;;;;;;5.70;3.45;;;;;;;15.83;50.96;100384.06;4959918;28;20055;-66
2022/04/05 02:04:42;;;;;;;5.50;3.45;;;;;;;15.85;51.27;100381.19;4960793;28;20024;-65
2022/04/05 02:07:15;;;;;;;6.28;4.18;;;;;;;15.88;51.99;100380.84;4969531;28;20031;-65
2022/04/05 02:09:41;;;;;;;10.23;4.28;;;;;;;15.91;52.06;100377.81;4967355;28;20030;-65
2022/04/05 02:12:07;;;;;;;5.43;4.10;;;;;;;15.95;50.76;100381.81;4965190;28;20075;-65
2022/04/05 02:14:32;;;;;;;6.40;4.55;;;;;;;15.98;52.52;100376.06;4967846;28;20515;-66
2022/04/05 02:16:57;;;;;;;6.43;3.95;;;;;;;16.00;52.40;100388.38;4962675;28;20023;-65
2022/04/05 02:19:23;;;;;;;6.43;4.47;;;;;;;16.00;51.89;100380.28;4965529;28;20114;-65
2022/04/05 02:21:49;;;;;;;9.48;4.45;;;;;;;16.02;51.06;100378.28;4967428;28;20030;-64
2022/04/05 02:24:15;;;;;;;5.90;4.25;;;;;;;16.04;50.82;100378.94;4966478;28;20121;-65
2022/04/05 02:26:40;;;;;;;6.93;3.88;;;;;;;16.06;51.53;100376.03;4964605;28;20102;-66
2022/04/05 02:29:06;;;;;;;5.35;3.97;;;;;;;16.08;52.25;100382.13;4961485;28;20054;-65
2022/04/05 02:31:32;;;;;;;6.90;4.00;;;;;;;16.08;52.05;100380.25;4963644;28;20049;-65
2022/04/05 02:33:57;;;;;;;5.03;3.92;;;;;;;16.12;52.40;100388.84;4966186;28;20022;-64
2022/04/05 02:36:22;;;;;;;5.70;3.75;;;;;;;16.13;52.60;100377.03;4958932;28;20027;-65
2022/04/05 02:38:48;;;;;;;6.35;4.40;;;;;;;16.16;51.19;100379.38;4962629;28;20034;-66
2022/04/05 02:41:13;;;;;;;7.28;4.68;;;;;;;16.18;51.35;100383.59;4963944;28;20103;-65
2022/04/05 02:43:38;;;;;;;9.68;4.75;;;;;;;16.18;51.49;100377.34;4965920;28;20098;-65
2022/04/05 02:46:05;;;;;;;6.47;3.92;;;;;;;16.16;52.64;100374.81;4964103;28;20033;-66
2022/04/05 02:48:30;;;;;;;7.30;4.28;;;;;;;16.17;52.02;100381.06;4966977;28;20023;-66
2022/04/05 02:50:56;;;;;;;8.25;5.20;;;;;;;16.17;51.95;100379.19;4967617;28;20491;-65
2022/04/05 02:53:21;;;;;;;7.03;4.70;;;;;;;16.18;52.29;100377.34;4961212;28;20023;-65
2022/04/05 02:55:47;;;;;;;5.95;4.18;;;;;;;16.20;52.26;100375.31;4964850;28;20023;-66
2022/04/05 02:58:12;;;;;;;8.15;4.22;;;;;;;16.23;51.80;100374.94;4967316;28;20051;-66
2022/04/05 03:00:39;;;;;;;10.82;5.25;;;;;;;16.26;52.44;100374.59;4967478;28;20047;-65
2022/04/05 03:03:05;;;;;;;7.80;5.35;;;;;;;16.26;52.67;100366.50;4962340;28;20547;-66
2022/04/05 03:05:30;;;;;;;6.28;4.55;;;;;;;16.26;51.62;100363.78;4957557;28;20026;-66
2022/04/05 03:07:56;;;;;;;5.95;4.47;;;;;;;16.30;52.27;100373.25;4963881;28;20028;-65
2022/04/05 03:10:21;;;;;;;11.15;4.65;;;;;;;16.28;51.89;100368.00;4964583;28;20098;-65
2022/04/05 03:12:47;;;;;;;9.02;4.65;;;;;;;16.29;52.32;100368.84;4961607;28;20023;-66
2022/04/05 03:15:13;;;;;;;9.25;4.45;;;;;;;16.32;52.56;100365.78;4963091;28;20037;-65
2022/04/05 03:17:45;;;;;;;7.82;4.85;;;;;;;16.37;51.42;100363.38;4966854;28;20019;-66
2022/04/05 03:20:14;;;;;;;5.95;4.30;;;;;;;16.41;51.72;100367.44;4961761;28;20027;-64
2022/04/05 03:22:43;;;;;;;8.23;5.18;;;;;;;16.45;51.15;100371.44;4963424;28;20034;-65
2022/04/05 03:25:10;;;;;;;9.77;5.93;;;;;;;16.46;51.25;100359.63;4964273;28;20062;-65
2022/04/05 03:27:42;;;;;;;9.70;6.00;;;;;;;16.50;52.67;100366.34;4965559;28;20051;-65
2022/04/05 03:30:13;;;;;;;9.90;5.40;;;;;;;16.52;51.86;100372.44;4958654;28;20036;-66
2022/04/05 03:32:39;;;;;;;8.95;6.30;;;;;;;16.55;51.66;100373.97;4965420;28;20051;-66
2022/04/05 03:35:06;;;;;;;10.50;5.95;;;;;;;16.55;51.89;100358.59;4965519;28;20373;-66
2022/04/05 03:37:31;;;;;;;12.23;5.90;;;;;;;16.57;52.18;100361.94;4969608;28;20472;-66
2022/04/05 03:39:56;;;;;;;10.85;6.95;;;;;;;16.59;52.19;100370.72;4961355;28;20085;-66
2022/04/05 03:42:22;;;;;;;10.52;6.45;;;;;;;16.62;51.27;100359.53;4960356;28;20066;-65
2022/04/05 03:44:47;;;;;;;11.23;6.05;;;;;;;16.65;52.31;100364.59;4963615;28;20026;-65
2022/04/05 03:47:13;;;;;;;11.00;6.65;;;;;;;16.68;51.47;100364.25;4962529;28;20023;-66
2022/04/05 03:49:38;;;;;;;12.07;7.10;;;;;;;16.72;51.44;100365.53;4969394;28;20047;-65
2022/04/05 03:52:04;;;;;;;13.68;8.02;;;;;;;16.74;52.26;100362.69;4963648;28;20472;-64
2022/04/05 03:54:29;;;;;;;12.35;7.43;;;;;;;16.76;51.08;100366.88;4965363;28;20023;-65
2022/04/05 03:56:55;;;;;;;9.52;6.47;;;;;;;16.79;51.48;100366.53;4959300;28;20042;-66
2022/04/05 03:59:20;;;;;;;11.43;6.25;;;;;;;16.81;52.40;100369.88;4961993;28;20125;-65
2022/04/05 04:01:45;;;;;;;13.60;7.10;;;;;;;16.82;51.19;100371.56;4960604;28;20511;-66
2022/04/05 04:04:11;;;;;;;13.13;6.45;;;;;;;16.85;52.38;100367.66;4966583;28;20073;-65
2022/04/05 04:06:36;;;;;;;13.52;6.65;;;;;;;16.84;52.31;100369.53;4961248;28;20023;-65
2022/04/05 04:09:02;;;;;;;19.83;7.18;;;;;;;16.84;52.83;100365.97;4967259;28;20027;-65
2022/04/05 04:11:28;;;;;;;10.32;6.50;;;;;;;16.84;51.22;100365.97;4959166;28;20019;-65
2022/04/05 04:13:53;;;;;;;15.25;7.20;;;;;;;16.83;52.35;100372.41;4962617;28;20031;-65
2022/04/05 04:16:19;;;;;;;12.90;7.57;;;;;;;16.82;52.80;100366.16;4960150;28;20384;-65
2022/04/05 04:18:44;;;;;;;13.50;7.90;;;;;;;16.81;51.85;100371.75;4968469;28;20029;-66
2022/04/05 04:21:09;;;;;;;13.13;7.50;;;;;;;16.79;51.99;100365.69;4962400;28;20105;-66
2022/04/05 04:23:35;;;;;;;13.27;8.40;;;;;;;16.78;53.06;100367.53;4959336;28;20042;-66
2022/04/05 04:26:01;;;;;;;18.40;7.13;;;;;;;16.78;52.54;100370.25;4962547;28;20077;-64
2022/04/05 04:28:26;;;;;;;14.75;7.45;;;;;;;16.77;52.70;100367.72;4965487;28;20118;-65
2022/04/05 04:30:52;;;;;;;22.85;7.75;;;;;;;16.76;53.04;100369.59;4962875;28;20114;-66
2022/04/05 04:33:17;;;;;;;11.32;7.53;;;;;;;16.77;52.00;100379.41;4965425;28;20473;-65
2022/04/05 04:35:43;;;;;;;12.27;7.25;;;;;;;16.79;52.08;100376.50;4959946;28;20485;-65
2022/04/05 04:38:08;;;;;;;16.08;7.80;;;;;;;16.78;52.03;100372.94;4962342;28;20019;-66
2022/04/05 04:40:34;;;;;;;12.45;7.47;;;;;;;16.79;51.82;100371.94;4960681;28;20477;-66
2022/04/05 04:43:00;;;;;;;15.10;7.88;;;;;;;16.80;52.74;100378.19;4968067;28;20030;-66
2022/04/05 04:45:28;;;;;;;16.98;8.10;;;;;;;16.80;51.99;100379.03;4957951;28;20370;-65
2022/04/05 04:47:55;;;;;;;16.25;8.32;;;;;;;16.81;52.45;100380.69;4962011;28;20046;-66
2022/04/05 04:50:20;;;;;;;16.50;8.55;;;;;;;16.82;52.28;100376.97;4963810;28;20466;-66
2022/04/05 04:52:46;;;;;;;15.35;8.18;;;;;;;16.82;52.03;100386.97;4959861;28;20019;-66
2022/04/05 04:55:11;;;;;;;18.90;7.97;;;;;;;16.84;52.12;100383.06;4963028;28;20046;-66
2022/04/05 04:57:36;;;;;;;12.02;7.53;;;;;;;16.86;51.99;100380.19;4970286;28;20030;-66
2022/04/05 05:00:04;;;;;;;14.60;8.07;;;;;;;16.89;53.17;100375.22;4957579;28;20019;-66
2022/04/05 05:02:29;;;;;;;13.68;8.20;;;;;;;16.91;51.91;100385.03;4958974;28;20471;-67
2022/04/05 05:04:55;;;;;;;16.92;8.20;;;;;;;16.91;51.69;100380.47;4965795;28;20034;-66
2022/04/05 05:07:20;;;;;;;18.20;8.73;;;;;;;16.93;51.86;100385.69;4962125;28;20033;-66
2022/04/05 05:09:45;;;;;;;13.40;7.22;;;;;;;16.93;52.95;100377.56;4960501;28;20469;-67
2022/04/05 05:12:11;;;;;;;13.55;7.82;;;;;;;16.95;52.73;100387.19;4957891;28;20457;-67
2022/04/05 05:14:37;;;;;;;11.82;7.32;;;;;;;16.97;51.79;100381.63;4965328;28;20030;-67
2022/04/05 05:17:03;;;;;;;14.93;7.85;;;;;;;16.99;52.49;100387.69;4957651;28;20023;-67
2022/04/05 05:19:28;;;;;;;11.43;7.45;;;;;;;17.01;52.38;100378.34;4959095;28;20082;-67
2022/04/05 05:21:54;;;;;;;13.85;7.63;;;;;;;17.02;52.36;100379.19;4955490;28;20443;-67
2022/04/05 05:24:19;;;;;;;17.08;7.88;;;;;;;17.01;52.56;100372.09;4958770;28;20388;-67
2022/04/05 05:26:44;;;;;;;11.10;6.95;;;;;;;17.04;53.04;100379.84;4974751;28;20034;-67
2022/04/05 05:29:11;;;;;;;13.88;7.47;;;;;;;17.05;52.60;100373.44;4972725;28;20077;-68
2022/04/05 05:31:36;;;;;;;15.90;6.88;;;;;;;17.06;52.90;100384.06;4974689;28;20022;-67
2022/04/05 05:34:01;;;;;;;14.77;7.22;;;;;;;17.05;52.24;100385.09;4974648;28;20437;-67
2022/04/05 05:36:27;;;;;;;14.05;7.68;;;;;;;17.05;52.52;100376.13;4974487;28;20030;-67
2022/04/05 05:38:52;;;;;;;12.73;7.32;;;;;;;17.06;52.61;100388.63;4957315;28;20067;-66
2022/04/05 05:41:17;;;;;;;16.20;7.95;;;;;;;17.04;52.95;100385.25;4974521;28;20027;-67
2022/04/05 05:43:45;;;;;;;10.10;6.63;;;;;;;17.02;52.97;100388.16;4974401;28;20049;-67
2022/04/05 05:46:11;;;;;;;13.77;8.05;;;;;;;17.04;52.46;100385.25;4974747;28;20027;-67
2022/04/05 05:48:37;;;;;;;14.85;7.30;;;;;;;17.05;53.01;100392.38;4974254;28;20482;-67
2022/04/05 05:51:02;;;;;;;13.65;7.55;;;;;;;17.06;51.91;100402.16;4974760;28;20093;-67
2022/04/05 05:53:27;;;;;;;13.13;6.65;;;;;;;17.02;51.85;100392.72;4974518;28;20027;-68
2022/04/05 05:55:53;;;;;;;11.57;6.97;;;;;;;17.03;51.94;100402.53;4974519;28;20031;-66
2022/04/05 05:58:19;;;;;;;11.90;6.80;;;;;;;17.04;52.16;100401.50;4959957;28;20101;-67
2022/04/05 06:00:47;;;;;;;13.07;7.43;;;;;;;17.05;52.02;100403.19;4955435;28;20038;-67
2022/04/05 06:03:12;;;;;;;12.70;6.43;;;;;;;17.02;53.52;100399.00;4955457;28;20109;-66
2022/04/05 06:05:37;;;;;;;13.50;7.72;;;;;;;17.03;51.72;100402.53;4955375;28;20019;-66
2022/04/05 06:08:04;;;;;;;10.80;6.10;;;;;;;17.04;52.12;100406.91;4954984;28;20023;-67
2022/04/05 06:10:30;;;;;;;11.02;6.38;;;;;;;17.07;52.39;100411.97;4955212;28;20023;-67
2022/04/05 06:12:56;;;;;;;10.15;6.30;;;;;;;17.06;52.58;100411.13;4957708;28;20543;-67
2022/04/05 06:15:22;;;;;;;12.40;6.50;;;;;;;17.08;53.04;100413.66;4960346;28;20019;-67
2022/04/05 06:17:48;;;;;;;10.00;5.88;;;;;;;17.09;51.83;100421.59;4974418;28;20110;-67
2022/04/05 06:20:16;;;;;;;12.60;5.88;;;;;;;17.09;52.99;100407.19;4974665;28;20384;-68
2022/04/05 06:22:47;;;;;;;11.43;5.75;;;;;;;17.09;52.47;100421.59;4977974;28;20037;-67
2022/04/05 06:25:18;;;;;;;10.07;6.00;;;;;;;17.09;52.92;100418.03;4976707;28;20149;-68
2022/04/05 06:27:44;;;;;;;10.48;6.40;;;;;;;17.08;53.01;100413.66;4977846;28;20026;-67
2022/04/05 06:30:10;;;;;;;9.25;5.70;;;;;;;17.08;53.31;100425.34;4978194;28;20030;-68
2022/04/05 06:32:36;;;;;;;11.85;5.53;;;;;;;17.09;52.52;100427.00;4959982;28;20031;-68
2022/04/05 06:35:03;;;;;;;9.48;5.82;;;;;;;17.08;52.43;100429.91;4958203;28;20078;-67
2022/04/05 06:37:29;;;;;;;10.30;5.68;;;;;;;17.07;53.11;100428.19;4958390;28;20114;-67
2022/04/05 06:39:54;;;;;;;11.23;5.88;;;;;;;17.09;53.42;100437.81;4958403;28;20054;-68
2022/04/05 06:42:20;;;;;;;9.65;5.57;;;;;;;17.11;52.45;100433.09;4958298;28;20452;-68
2022/04/05 06:44:45;;;;;;;8.65;5.93;;;;;;;17.12;52.95;100436.63;4957248;29;20039;-67
2022/04/05 06:47:11;;;;;;;9.45;5.43;;;;;;;17.11;52.87;100443.06;4958325;28;20027;-67
2022/04/05 06:49:37;;;;;;;9.15;6.03;;;;;;;17.09;52.99;100442.38;4958230;28;20027;-68
2022/04/05 06:52:03;;;;;;;10.57;5.75;;;;;;;17.11;53.27;100451.19;4957143;29;20106;-68
2022/04/05 06:54:29;;;;;;;6.57;4.95;;;;;;;17.10;53.47;100457.63;4958101;28;20106;-67
2022/04/05 06:56:54;;;;;;;9.20;5.35;;;;;;;17.08;52.76;100455.09;4958380;28;20047;-67
2022/04/05 06:59:19;;;;;;;8.73;5.07;;;;;;;17.08;52.97;100448.84;4957903;28;20055;-66
2022/04/05 07:01:45;;;;;;;7.97;5.15;;;;;;;17.08;52.69;100454.25;4958292;28;20031;-66
2022/04/05 07:04:11;;;;;;;8.75;5.03;;;;;;;17.10;52.45;100454.91;4958267;28;20031;-66
2022/04/05 07:06:36;;;;;;;8.50;5.57;;;;;;;17.16;52.72;100451.47;4957680;28;20050;-67
2022/04/05 07:09:02;;;;;;;10.27;5.63;;;;;;;17.22;52.85;100453.47;4961161;28;20030;-67
2022/04/05 07:11:27;;;;;;;8.93;6.40;;;;;;;17.26;52.47;100452.91;4977269;28;20050;-67
2022/04/05 07:13:52;;;;;;;8.77;5.90;;;;;;;17.29;52.11;100455.25;4977244;28;20473;-67
2022/04/05 07:16:19;;;;;;;9.73;6.25;;;;;;;17.34;52.38;100452.00;4977031;28;20432;-66
2022/04/05 07:18:44;;;;;;;10.25;6.60;;;;;;;17.38;53.09;100458.75;4977122;28;20069;-67
2022/04/05 07:21:11;;;;;;;10.27;6.22;;;;;;;17.42;51.71;100465.47;4977274;28;20388;-67
2022/04/05 07:23:36;;;;;;;9.85;6.40;;;;;;;17.49;52.18;100461.03;4976952;28;20468;-67
2022/04/05 07:26:03;;;;;;;10.50;5.78;;;;;;;17.55;52.13;100460.31;4976818;28;20165;-67
2022/04/05 07:28:28;;;;;;;12.05;7.28;;;;;;;17.57;53.07;100458.28;4976990;28;20081;-67
2022/04/05 07:30:53;;;;;;;10.10;6.95;;;;;;;17.60;51.91;100452.50;4977116;28;20496;-67
2022/04/05 07:33:19;;;;;;;13.35;6.78;;;;;;;17.64;52.47;100459.22;4976639;28;20023;-67
2022/04/05 07:35:45;;;;;;;11.00;7.60;;;;;;;17.67;52.52;100456.13;4976867;28;20391;-67
2022/04/05 07:38:12;;;;;;;10.60;6.80;;;;;;;17.68;51.63;100459.69;4976775;28;20026;-67
2022/04/05 07:40:51;;;;;;;13.00;7.20;;;;;;;17.72;51.51;100455.59;4976794;28;20027;-68
2022/04/05 07:43:24;;;;;;;14.30;7.53;;;;;;;17.74;51.66;100459.81;4976534;28;20023;-67
2022/04/05 07:45:50;;;;;;;10.20;6.47;;;;;;;17.77;51.30;100458.59;4975495;28;20030;-67
2022/04/05 07:48:17;;;;;;;10.02;6.85;;;;;;;17.78;52.25;100454.88;4976625;28;20034;-67
2022/04/05 07:50:43;;;;;;;10.20;6.63;;;;;;;17.79;51.62;100457.38;4968447;28;20473;-67
2022/04/05 07:53:08;;;;;;;11.50;7.35;;;;;;;17.79;51.94;100457.38;4957060;28;20123;-68
2022/04/05 07:55:34;;;;;;;11.65;6.88;;;;;;;17.81;51.69;100454.50;4957219;28;20034;-67
2022/04/05 07:57:59;;;;;;;10.90;5.88;;;;;;;17.82;51.34;100461.56;4956762;28;20158;-67
2022/04/05 08:00:26;;;;;;;10.45;6.90;;;;;;;17.85;52.13;100453.09;4956789;28;20054;-67
2022/04/05 08:02:52;;;;;;;12.98;7.35;;;;;;;17.87;51.74;100461.84;4957132;28;20019;-68
2022/04/05 08:05:17;;;;;;;10.45;7.05;;;;;;;17.89;52.05;100452.53;4956510;28;20499;-67
2022/04/05 08:07:43;;;;;;;16.25;6.35;;;;;;;17.92;51.65;100462.97;4956594;28;20440;-66
2022/04/05 08:10:09;;;;;;;11.88;6.32;;;;;;;17.93;51.88;100459.25;4955802;29;20393;-67
2022/04/05 08:12:42;;;;;;;9.98;6.60;;;;;;;17.93;51.26;100459.25;4957054;28;20029;-68
2022/04/05 08:15:08;;;;;;;12.35;6.63;;;;;;;17.98;52.04;100456.81;4956569;28;20057;-67
2022/04/05 08:17:34;;;;;;;12.40;7.20;;;;;;;18.01;51.25;100464.59;4956477;28;20055;-67
2022/04/05 08:19:59;;;;;;;14.77;7.78;;;;;;;18.03;52.50;100465.22;4956874;28;20382;-67
2022/04/05 08:22:25;;;;;;;12.27;6.05;;;;;;;18.07;51.93;100467.56;4956413;28;20389;-67
2022/04/05 08:24:50;;;;;;;10.30;6.20;;;;;;;18.07;52.17;100467.56;4956535;28;20050;-68
2022/04/05 08:27:15;;;;;;;14.82;6.20;;;;;;;18.08;51.54;100462.00;4956206;28;20027;-67
2022/04/05 08:29:41;;;;;;;10.35;6.55;;;;;;;18.11;51.59;100466.19;4956152;28;20066;-67
2022/04/05 08:32:07;;;;;;;12.18;6.00;;;;;;;18.11;51.73;100463.47;4956378;28;20038;-67
2022/04/05 08:34:33;;;;;;;6.88;5.55;;;;;;;18.12;51.99;100470.59;4956334;28;20508;-68
2022/04/05 08:36:59;;;;;;;9.88;6.70;;;;;;;18.12;51.49;100462.47;4955571;29;20473;-68
2022/04/05 08:39:24;;;;;;;7.72;5.65;;;;;;;18.11;51.77;100466.19;4956712;28;20061;-67
2022/04/05 08:41:50;;;;;;;9.82;5.38;;;;;;;18.11;51.68;100477.03;4959593;28;20062;-68
2022/04/05 08:44:18;;;;;;;10.63;5.65;;;;;;;18.12;51.06;100478.72;4974996;28;20030;-67
2022/04/05 08:46:44;;;;;;;7.30;5.35;;;;;;;18.11;50.93;100480.59;4975382;28;20030;-67
2022/04/05 08:49:11;;;;;;;15.00;5.97;;;;;;;18.13;51.86;100474.97;4975212;28;20038;-67
2022/04/05 08:51:36;;;;;;;7.22;5.03;;;;;;;18.15;51.16;100478.31;4974107;28;20487;-67
2022/04/05 08:54:02;;;;;;;8.63;5.10;;;;;;;18.13;51.08;100480.38;4975334;28;20014;-67
2022/04/05 08:56:30;;;;;;;8.45;5.05;;;;;;;18.11;52.13;100483.31;4975411;28;20046;-67
2022/04/05 08:58:56;;;;;;;7.95;4.53;;;;;;;18.09;51.65;100484.53;4975115;28;20121;-67
2022/04/05 09:01:22;;;;;;;9.57;5.03;;;;;;;18.09;52.20;100489.94;4975500;28;20026;-67
2022/04/05 09:03:47;;;;;;;8.00;5.63;;;;;;;18.08;51.43;100488.25;4975577;28;20035;-67
2022/04/05 09:06:29;;;;;;;7.55;5.22;;;;;;;18.08;51.92;100483.66;4973723;28;20503;-67
2022/04/05 09:08:58;;;;;;;5.63;3.97;;;;;;;18.07;51.63;100489.25;4974684;28;20027;-67
2022/04/05 09:11:27;;;;;;;6.25;4.60;;;;;;;18.06;51.53;100493.03;4975268;28;20389;-67
2022/04/05 09:13:58;;;;;;;7.00;5.00;;;;;;;18.07;51.73;100492.81;4975075;28;20022;-67
2022/04/05 09:16:32;;;;;;;7.20;4.95;;;;;;;18.12;51.31;100479.53;4975026;28;20027;-67
2022/04/05 09:19:17;;;;;;;7.30;4.90;;;;;;;18.20;51.14;100494.91;4975394;28;20436;-66
2022/04/05 09:21:58;;;;;;;6.97;4.63;;;;;;;18.25;52.07;100489.75;4973088;28;20423;-67
2022/04/05 09:24:34;;;;;;;6.22;4.53;;;;;;;18.28;51.68;100494.81;4959853;28;20425;-67
2022/04/05 09:27:00;;;;;;;7.43;5.55;;;;;;;18.26;52.11;100492.25;4954281;29;20031;-68
2022/04/05 09:29:43;;;;;;;9.27;4.57;;;;;;;18.27;51.10;100493.09;4954190;29;20035;-68
2022/04/05 09:32:10;;;;;;;7.72;4.57;;;;;;;18.29;51.41;100491.88;4953988;29;20019;-68
2022/04/05 09:34:49;;;;;;;7.00;4.88;;;;;;;18.33;51.54;100497.78;4955367;28;20039;-68
2022/04/05 09:37:14;;;;;;;6.90;4.65;;;;;;;18.36;51.52;100487.41;4959125;28;20038;-68
2022/04/05 09:39:41;;;;;;;9.68;4.90;;;;;;;18.46;51.16;100497.97;4972617;28;20023;-67
2022/04/05 09:42:08;;;;;;;6.07;4.50;;;;;;;18.56;51.49;100504.00;4974617;28;20054;-68
2022/04/05 09:44:37;;;;;;;7.85;5.00;;;;;;;18.69;50.62;100497.88;4974343;28;20027;-67
2022/04/05 09:47:03;;;;;;;6.35;4.40;;;;;;;18.82;51.26;100498.88;4974779;28;20191;-68
2022/04/05 09:49:34;;;;;;;6.35;4.25;;;;;;;18.95;50.60;100495.50;4974395;28;20605;-68
2022/04/05 09:52:00;;;;;;;8.00;5.05;;;;;;;19.07;50.60;100500.22;4973017;28;20032;-68
2022/04/05 09:54:30;;;;;;;6.88;5.05;;;;;;;19.20;50.60;100496.81;4974329;28;20547;-68
2022/04/05 09:57:06;;;;;;;6.18;4.40;;;;;;;19.36;50.45;100491.13;4975292;28;20046;-68
2022/04/05 09:59:40;;;;;;;6.47;4.93;;;;;;;19.46;50.80;100496.25;4978243;28;20054;-68
2022/04/05 10:02:12;;;;;;;7.32;4.22;;;;;;;19.47;50.61;100492.50;4977032;28;20121;-68
2022/04/05 10:05:00;;;;;;;8.07;4.90;;;;;;;19.69;50.23;100496.88;4978381;28;20034;-68
2022/04/05 10:07:29;;;;;;;8.73;4.15;;;;;;;19.79;50.04;100491.13;4978969;28;20043;-67
2022/04/05 10:09:55;;;;;;;8.02;4.57;;;;;;;19.77;50.59;100491.31;4960902;28;20190;-67
2022/04/05 10:12:21;;;;;;;8.27;5.07;;;;;;;19.79;50.32;100497.41;4976747;28;20559;-68
2022/04/05 10:14:46;;;;;;;5.45;4.45;;;;;;;19.88;50.09;100496.19;4977859;28;20054;-68
2022/04/05 10:17:12;;;;;;;5.47;4.45;;;;;;;20.00;50.53;100493.78;4977926;28;20023;-68
2022/04/05 10:19:39;;;;;;;5.53;3.63;;;;;;;19.97;49.96;100499.63;4978099;28;20030;-67
2022/04/05 10:22:04;;;;;;;10.20;5.13;;;;;;;19.87;50.28;100499.97;4978046;28;20022;-68
2022/04/05 10:24:30;;;;;;;5.95;3.75;;;;;;;19.77;50.50;100500.31;4976486;28;20469;-68
2022/04/05 10:26:55;;;;;;;5.90;4.20;;;;;;;19.72;50.24;100496.50;4976830;28;20039;-68
2022/04/05 10:29:21;;;;;;;10.00;4.18;;;;;;;19.66;50.40;100500.84;4978046;28;20035;-66
2022/04/05 10:32:02;;;;;;;6.75;3.58;;;;;;;19.61;50.34;100499.75;4960660;28;20038;-66
2022/04/05 10:34:32;;;;;;;6.05;4.07;;;;;;;19.56;50.23;100500.34;4976656;28;20031;-66
2022/04/05 10:37:17;;;;;;;5.55;3.38;;;;;;;19.51;50.08;100500.09;4976464;28;20031;-66
2022/04/05 10:40:04;;;;;;;9.20;5.60;;;;;;;19.51;49.78;100500.09;4977803;28;20031;-66
2022/04/05 10:42:33;;;;;;;7.80;4.13;;;;;;;19.52;50.60;100498.19;4963313;28;20081;-66
2022/04/05 10:45:11;;;;;;;3.83;3.38;;;;;;;19.49;50.10;100493.16;4977165;28;20396;-66
2022/04/05 10:47:59;;;;;;;5.18;3.45;;;;;;;19.42;50.06;100500.41;4977449;28;20408;-66
2022/04/05 10:50:24;;;;;;;5.97;3.78;;;;;;;19.41;50.35;100493.28;4977739;28;20030;-67
2022/04/05 10:53:17;;;;;;;5.28;3.42;;;;;;;19.46;50.57;100491.66;4977521;28;20499;-66
2022/04/05 10:56:04;;;;;;;5.53;3.72;;;;;;;19.52;50.31;100490.03;4977769;28;20493;-67
2022/04/05 10:58:34;;;;;;;5.85;3.08;;;;;;;19.56;49.88;100496.78;4977219;28;20046;-66
2022/04/05 11:01:19;;;;;;;4.10;3.38;;;;;;;19.57;50.27;100493.84;4977340;28;20027;-66
2022/04/05 11:04:13;;;;;;;5.28;3.53;;;;;;;19.60;50.18;100495.34;4977086;28;20503;-66
2022/04/05 11:06:58;;;;;;;3.95;3.05;;;;;;;19.73;49.80;100485.44;4977134;28;20500;-66
2022/04/05 11:09:27;;;;;;;6.65;3.33;;;;;;;19.87;49.23;100486.38;4976007;28;20023;-66
2022/04/05 11:11:53;;;;;;;3.67;3.20;;;;;;;19.95;49.44;100488.94;4975743;28;20023;-66
2022/04/05 11:14:42;;;;;;;4.75;3.38;;;;;;;20.00;49.48;100491.91;4977028;28;20023;-66
2022/04/05 11:17:10;;;;;;;4.45;3.03;;;;;;;20.04;49.75;100489.63;4977068;28;20477;-66
2022/04/05 11:19:37;;;;;;;3.42;2.88;;;;;;;20.05;49.45;100489.44;4976947;28;20073;-66
2022/04/05 11:22:23;;;;;;;6.82;3.10;;;;;;;20.11;48.79;100499.50;4976875;28;20026;-66